Time;durP1;ratioP1;P1;durP2;ratioP2;P2;SDS_P1;SDS_P2;PMS_P1;PMS_P2;Temp;Humidity;BMP_temperature;BMP_pressure;BME280_temperature;BME280_humidity;BME280_pressure;Samples;Min_cycle;Max_cycle;Signal;HPM_P1;HPM_P2
2023/06/08 00:01:48;;;;;;;4.37;3.97;;;;;16.90;96826.00;;;;4988293;28;20213;-74
2023/06/08 00:04:40;;;;;;;4.80;3.73;;;;;17.00;96822.00;;;;4989199;28;20222;-74
2023/06/08 00:07:29;;;;;;;3.90;3.50;;;;;16.70;96828.00;;;;4987788;28;20198;-74
2023/06/08 00:10:18;;;;;;;4.37;3.50;;;;;16.80;96822.00;;;;4990161;28;20588;-75
2023/06/08 00:13:07;;;;;;;3.70;3.23;;;;;16.80;96819.00;;;;4990203;28;20227;-74
2023/06/08 00:15:58;;;;;;;21.93;4.17;;;;;16.60;96817.00;;;;4990112;28;20215;-74
2023/06/08 00:18:49;;;;;;;3.70;3.40;;;;;16.40;96818.00;;;;4990621;28;20201;-74
2023/06/08 00:21:43;;;;;;;3.70;3.33;;;;;16.50;96823.00;;;;4989624;28;20202;-74
2023/06/08 00:24:32;;;;;;;4.07;3.50;;;;;16.70;96813.00;;;;4990344;28;20222;-74
2023/06/08 00:27:21;;;;;;;5.37;3.47;;;;;16.80;96824.00;;;;4990752;28;20215;-73
2023/06/08 00:30:13;;;;;;;5.13;4.33;;;;;16.80;96821.00;;;;4989944;28;20199;-73
2023/06/08 00:33:02;;;;;;;3.93;3.57;;;;;16.80;96810.00;;;;4985676;28;20233;-74
2023/06/08 00:35:51;;;;;;;4.13;3.20;;;;;16.50;96807.00;;;;4984488;28;20202;-73
2023/06/08 00:38:42;;;;;;;3.57;3.23;;;;;16.30;96808.00;;;;4985388;28;20211;-73
2023/06/08 00:41:31;;;;;;;4.33;3.70;;;;;16.40;96804.00;;;;4990093;28;20888;-73
2023/06/08 00:44:20;;;;;;;4.07;3.67;;;;;16.60;96813.00;;;;4988719;28;20235;-74
2023/06/08 00:47:10;;;;;;;7.30;3.60;;;;;16.60;96802.00;;;;4989416;28;20214;-73
2023/06/08 00:50:00;;;;;;;3.90;3.50;;;;;16.60;96808.00;;;;4990288;28;20593;-73
2023/06/08 00:52:49;;;;;;;3.77;3.47;;;;;16.70;96804.00;;;;4986968;28;20232;-74
2023/06/08 00:55:43;;;;;;;6.13;3.77;;;;;16.70;96798.00;;;;4976973;28;20303;-74
2023/06/08 00:58:33;;;;;;;5.07;3.87;;;;;16.10;96791.00;;;;4988079;28;20608;-73
2023/06/08 01:01:24;;;;;;;3.63;3.33;;;;;16.00;96791.00;;;;4987550;28;20214;-73
2023/06/08 01:04:14;;;;;;;5.90;4.50;;;;;16.10;96784.00;;;;4989210;28;20226;-74
2023/06/08 01:07:14;;;;;;;5.33;3.97;;;;;16.30;96789.00;;;;4986319;28;20230;-74
2023/06/08 01:10:06;;;;;;;4.57;3.53;;;;;16.30;96785.00;;;;4990464;28;20206;-73
2023/06/08 01:13:01;;;;;;;5.87;4.50;;;;;16.20;96781.00;;;;4984312;28;20234;-73
2023/06/08 01:15:52;;;;;;;4.37;3.70;;;;;16.10;96773.00;;;;4989125;28;20202;-73
2023/06/08 01:18:42;;;;;;;4.60;4.20;;;;;15.90;96775.00;;;;4989483;28;20799;-73
2023/06/08 01:21:42;;;;;;;4.60;3.93;;;;;16.00;96775.00;;;;4991321;28;20195;-74
2023/06/08 01:24:35;;;;;;;4.33;3.83;;;;;15.90;96760.00;;;;4988246;28;20268;-73
2023/06/08 01:27:31;;;;;;;4.77;4.23;;;;;15.80;96764.00;;;;4988008;28;20703;-73
2023/06/08 01:30:21;;;;;;;4.43;4.03;;;;;15.60;96751.00;;;;4989741;28;20687;-73
2023/06/08 01:33:13;;;;;;;3.70;3.40;;;;;15.70;96758.00;;;;4991783;28;20238;-72
2023/06/08 01:36:06;;;;;;;5.57;5.03;;;;;15.70;96744.00;;;;4986860;28;20236;-73
2023/06/08 01:39:02;;;;;;;4.97;4.30;;;;;15.80;96747.00;;;;4985789;28;20206;-73
2023/06/08 01:41:54;;;;;;;4.47;4.00;;;;;16.00;96746.00;;;;4991935;28;20252;-73
2023/06/08 01:44:45;;;;;;;3.70;3.40;;;;;16.10;96744.00;;;;4989344;28;20223;-72
2023/06/08 01:47:37;;;;;;;4.40;4.00;;;;;16.10;96746.00;;;;4989522;28;20580;-73
2023/06/08 01:50:27;;;;;;;4.53;3.37;;;;;16.20;96744.00;;;;4989528;28;20203;-73
2023/06/08 01:53:17;;;;;;;4.20;3.80;;;;;16.10;96739.00;;;;4988912;28;20234;-73
2023/06/08 01:56:07;;;;;;;6.57;3.30;;;;;15.80;96733.00;;;;4991586;28;20206;-72
2023/06/08 01:58:57;;;;;;;6.50;3.97;;;;;15.40;96733.00;;;;4977910;28;20233;-72
2023/06/08 02:01:46;;;;;;;3.97;3.63;;;;;15.40;96729.00;;;;4981555;28;20199;-72
2023/06/08 02:04:35;;;;;;;5.47;4.40;;;;;15.50;96733.00;;;;4987683;28;20657;-74
2023/06/08 02:07:24;;;;;;;5.80;4.53;;;;;15.30;96726.00;;;;4987994;28;20213;-73
2023/06/08 02:10:13;;;;;;;7.20;4.60;;;;;15.20;96728.00;;;;4988818;28;20592;-73
2023/06/08 02:13:02;;;;;;;3.90;3.43;;;;;15.40;96724.00;;;;4985452;28;20226;-73
2023/06/08 02:15:53;;;;;;;7.47;3.40;;;;;15.20;96729.00;;;;4984548;28;20611;-73
2023/06/08 02:18:42;;;;;;;7.03;4.10;;;;;15.30;96727.00;;;;4987081;28;20576;-72
2023/06/08 02:21:32;;;;;;;3.97;3.27;;;;;15.30;96719.00;;;;4987199;28;20203;-73
2023/06/08 02:24:21;;;;;;;4.77;4.37;;;;;15.60;96724.00;;;;4990985;28;20226;-74
2023/06/08 02:27:11;;;;;;;4.20;3.47;;;;;15.60;96723.00;;;;4992380;28;20215;-74
2023/06/08 02:30:00;;;;;;;4.67;4.23;;;;;15.70;96715.00;;;;4990921;28;20211;-73
2023/06/08 02:32:53;;;;;;;5.53;4.20;;;;;15.80;96717.00;;;;4987948;28;20234;-74
2023/06/08 02:35:42;;;;;;;4.57;4.17;;;;;15.60;96713.00;;;;4991848;28;20248;-74
2023/06/08 02:38:31;;;;;;;4.77;3.40;;;;;15.70;96715.00;;;;4992130;28;20202;-74
2023/06/08 02:41:20;;;;;;;8.27;4.90;;;;;15.70;96713.00;;;;4992027;28;20209;-73
2023/06/08 02:44:09;;;;;;;8.27;4.07;;;;;15.60;96705.00;;;;4992373;28;20230;-74
2023/06/08 02:46:58;;;;;;;4.03;3.67;;;;;15.40;96710.00;;;;4984336;28;20699;-73
2023/06/08 02:49:48;;;;;;;3.50;3.20;;;;;15.10;96702.00;;;;4983873;28;20215;-73
2023/06/08 02:52:37;;;;;;;4.07;3.60;;;;;14.90;96703.00;;;;4994479;28;20264;-73
2023/06/08 02:55:28;;;;;;;4.60;4.13;;;;;14.90;96700.00;;;;4995890;28;20236;-72
2023/06/08 02:58:17;;;;;;;5.67;3.40;;;;;14.80;96701.00;;;;4991405;28;20210;-73
2023/06/08 03:01:14;;;;;;;14.50;4.83;;;;;14.80;96693.00;;;;4990474;28;20598;-72
2023/06/08 03:04:08;;;;;;;6.10;4.37;;;;;14.90;96684.00;;;;4992782;28;20703;-73
2023/06/08 03:06:58;;;;;;;3.87;3.47;;;;;15.00;96689.00;;;;4976380;28;20728;-72
2023/06/08 03:09:47;;;;;;;4.77;4.37;;;;;15.00;96700.00;;;;4979055;28;20613;-73
2023/06/08 03:12:36;;;;;;;5.77;3.93;;;;;14.30;96688.00;;;;4995199;28;20219;-73
2023/06/08 03:15:26;;;;;;;5.93;4.03;;;;;14.40;96703.00;;;;4990510;28;20210;-72
2023/06/08 03:18:16;;;;;;;7.60;4.00;;;;;14.80;96699.00;;;;4992396;28;20213;-73
2023/06/08 03:21:07;;;;;;;4.23;3.83;;;;;15.10;96697.00;;;;4991161;28;20210;-74
2023/06/08 03:23:57;;;;;;;8.67;4.03;;;;;15.30;96702.00;;;;4981459;28;20219;-74
2023/06/08 03:26:47;;;;;;;6.37;3.80;;;;;15.20;96701.00;;;;4995699;28;20699;-74
2023/06/08 03:29:36;;;;;;;6.57;3.67;;;;;15.40;96714.00;;;;4982433;28;20687;-74
2023/06/08 03:32:25;;;;;;;4.23;3.80;;;;;15.30;96715.00;;;;4992155;28;20234;-74
2023/06/08 03:35:14;;;;;;;4.77;4.33;;;;;15.20;96707.00;;;;4990409;28;20265;-74
2023/06/08 03:38:03;;;;;;;4.63;4.27;;;;;15.50;96715.00;;;;4992459;28;20264;-74
2023/06/08 03:40:53;;;;;;;4.90;4.43;;;;;15.60;96706.00;;;;4986163;28;20213;-74
2023/06/08 03:43:42;;;;;;;4.60;4.20;;;;;15.50;96710.00;;;;4985659;28;20219;-74
2023/06/08 03:46:31;;;;;;;4.37;3.97;;;;;15.10;96721.00;;;;4994749;28;20209;-74
2023/06/08 03:49:21;;;;;;;4.60;3.90;;;;;14.90;96719.00;;;;4993543;28;20225;-74
2023/06/08 03:52:10;;;;;;;4.60;4.20;;;;;15.20;96715.00;;;;4989867;28;20203;-74
2023/06/08 03:54:59;;;;;;;6.70;4.60;;;;;15.60;96718.00;;;;4982956;28;20202;-74
2023/06/08 03:57:50;;;;;;;5.20;4.30;;;;;15.60;96711.00;;;;4991187;28;20603;-74
2023/06/08 04:00:39;;;;;;;6.33;4.07;;;;;15.30;96722.00;;;;4990834;28;20209;-74
2023/06/08 04:03:29;;;;;;;4.23;3.67;;;;;14.80;96731.00;;;;4989456;28;20706;-73
2023/06/08 04:06:18;;;;;;;4.63;4.23;;;;;15.20;96728.00;;;;4989962;28;20198;-74
2023/06/08 04:09:08;;;;;;;4.60;4.13;;;;;15.30;96734.00;;;;4991351;28;20710;-73
2023/06/08 04:11:57;;;;;;;4.20;3.80;;;;;15.40;96741.00;;;;4988236;28;20206;-73
2023/06/08 04:14:48;;;;;;;4.97;3.60;;;;;15.00;96740.00;;;;4981444;28;20223;-73
2023/06/08 04:17:40;;;;;;;6.13;5.13;;;;;15.10;96732.00;;;;4990769;28;20207;-74
2023/06/08 04:20:29;;;;;;;4.43;4.03;;;;;15.80;96739.00;;;;4990779;28;20217;-74
2023/06/08 04:23:18;;;;;;;5.40;4.90;;;;;16.00;96736.00;;;;4990144;28;20238;-74
2023/06/08 04:26:07;;;;;;;4.87;4.30;;;;;15.90;96740.00;;;;4992488;28;20315;-74
2023/06/08 04:28:57;;;;;;;4.97;4.27;;;;;15.70;96734.00;;;;4996105;28;20675;-74
2023/06/08 04:31:47;;;;;;;6.57;3.77;;;;;15.70;96741.00;;;;4990730;28;20206;-74
2023/06/08 04:34:37;;;;;;;4.87;3.73;;;;;16.10;96747.00;;;;4991002;28;20222;-74
2023/06/08 04:37:26;;;;;;;5.77;4.47;;;;;16.00;96751.00;;;;4990915;28;20537;-74
2023/06/08 04:40:16;;;;;;;8.60;4.83;;;;;16.10;96759.00;;;;4990666;28;20214;-74
2023/06/08 04:43:08;;;;;;;4.97;3.67;;;;;16.10;96748.00;;;;4982232;28;20223;-73
2023/06/08 04:45:59;;;;;;;4.80;4.10;;;;;16.20;96763.00;;;;4981279;28;20210;-73
2023/06/08 04:48:50;;;;;;;4.90;4.40;;;;;16.50;96757.00;;;;4991161;28;20226;-73
2023/06/08 04:51:39;;;;;;;6.27;4.37;;;;;16.10;96765.00;;;;4989897;28;20213;-74
2023/06/08 04:54:28;;;;;;;6.57;4.43;;;;;16.60;96760.00;;;;4992278;28;20281;-74
2023/06/08 04:57:22;;;;;;;4.40;4.00;;;;;16.60;96776.00;;;;4989383;28;20210;-74
2023/06/08 05:00:12;;;;;;;7.23;4.53;;;;;16.60;96762.00;;;;4989597;28;20699;-73
2023/06/08 05:03:01;;;;;;;5.17;4.23;;;;;16.90;96773.00;;;;4985494;28;20218;-73
2023/06/08 05:05:52;;;;;;;8.10;4.53;;;;;17.00;96772.00;;;;4990196;28;20671;-73
2023/06/08 05:08:41;;;;;;;7.80;4.87;;;;;17.10;96771.00;;;;4990913;28;20577;-74
2023/06/08 05:11:30;;;;;;;5.57;5.00;;;;;17.10;96780.00;;;;4978170;28;20253;-74
2023/06/08 05:14:19;;;;;;;8.93;4.00;;;;;16.40;96774.00;;;;4985514;28;20636;-74
2023/06/08 05:17:09;;;;;;;5.83;4.70;;;;;16.80;96777.00;;;;4989079;28;20222;-74
2023/06/08 05:19:58;;;;;;;7.33;4.67;;;;;17.10;96777.00;;;;4985736;28;20210;-73
2023/06/08 05:22:48;;;;;;;6.33;4.83;;;;;17.10;96771.00;;;;4998864;28;20210;-74
2023/06/08 05:25:37;;;;;;;5.20;4.50;;;;;17.20;96773.00;;;;4997321;28;20676;-74
2023/06/08 05:28:26;;;;;;;4.53;4.00;;;;;17.10;96784.00;;;;4995041;28;20215;-74
2023/06/08 05:31:16;;;;;;;5.83;4.70;;;;;17.20;96774.00;;;;4995245;28;20198;-73
2023/06/08 05:34:05;;;;;;;5.73;5.00;;;;;17.10;96783.00;;;;4996991;28;20234;-74
2023/06/08 05:36:54;;;;;;;6.97;4.43;;;;;17.20;96779.00;;;;4985104;28;20290;-73
2023/06/08 05:39:44;;;;;;;9.30;6.30;;;;;17.50;96782.00;;;;4994532;28;20261;-74
2023/06/08 05:42:33;;;;;;;11.43;7.00;;;;;17.60;96777.00;;;;4988568;28;20206;-73
2023/06/08 05:45:23;;;;;;;9.87;6.50;;;;;18.00;96774.00;;;;4988414;28;20208;-74
2023/06/08 05:48:12;;;;;;;12.17;7.33;;;;;18.00;96766.00;;;;4994008;28;20205;-73
2023/06/08 05:51:02;;;;;;;6.80;5.60;;;;;18.00;96774.00;;;;4986810;28;20304;-74
2023/06/08 05:53:51;;;;;;;7.70;5.87;;;;;18.00;96773.00;;;;4986700;28;20222;-73
2023/06/08 05:56:42;;;;;;;5.50;5.00;;;;;18.10;96769.00;;;;4990040;28;20205;-74
2023/06/08 05:59:31;;;;;;;9.17;5.63;;;;;18.20;96770.00;;;;4988001;28;20214;-74
2023/06/08 06:02:20;;;;;;;5.63;5.07;;;;;18.60;96769.00;;;;4993382;28;20221;-74
2023/06/08 06:05:10;;;;;;;6.33;4.67;;;;;18.40;96769.00;;;;4991052;28;20416;-73
2023/06/08 06:07:59;;;;;;;6.10;4.40;;;;;18.40;96768.00;;;;4984637;28;20369;-73
2023/06/08 06:10:48;;;;;;;5.07;4.33;;;;;18.60;96764.00;;;;4981960;28;20649;-74
2023/06/08 06:13:39;;;;;;;5.07;4.57;;;;;18.90;96767.00;;;;4990236;28;20734;-74
2023/06/08 06:16:28;;;;;;;6.30;5.03;;;;;19.10;96764.00;;;;4990312;28;20210;-74
2023/06/08 06:19:17;;;;;;;7.17;4.73;;;;;19.00;96765.00;;;;4994928;28;20209;-74
2023/06/08 06:22:07;;;;;;;5.90;4.80;;;;;19.20;96772.00;;;;4999130;28;20206;-74
2023/06/08 06:24:56;;;;;;;4.80;4.30;;;;;19.30;96756.00;;;;4985764;28;20232;-74
2023/06/08 06:27:45;;;;;;;9.23;5.47;;;;;19.40;96767.00;;;;4982930;28;20207;-74
2023/06/08 06:30:37;;;;;;;6.27;4.80;;;;;19.30;96763.00;;;;4990466;28;20723;-74
2023/06/08 06:33:26;;;;;;;5.60;5.10;;;;;19.90;96765.00;;;;4992103;28;20218;-74
2023/06/08 06:36:15;;;;;;;5.37;4.60;;;;;20.10;96764.00;;;;4993930;28;20209;-74
2023/06/08 06:39:05;;;;;;;7.37;5.13;;;;;20.40;96761.00;;;;4989725;28;20211;-74
2023/06/08 06:41:54;;;;;;;6.27;5.17;;;;;20.10;96767.00;;;;4992845;28;20216;-74
2023/06/08 06:44:43;;;;;;;5.60;5.07;;;;;20.50;96765.00;;;;4990486;28;20214;-74
2023/06/08 06:47:34;;;;;;;6.80;5.90;;;;;20.70;96762.00;;;;4993556;28;20222;-74
2023/06/08 06:50:23;;;;;;;5.90;4.57;;;;;21.10;96769.00;;;;4997317;28;20207;-74
2023/06/08 06:53:12;;;;;;;6.47;4.47;;;;;21.30;96770.00;;;;4987815;28;20239;-74
2023/06/08 06:56:01;;;;;;;6.13;5.17;;;;;21.50;96774.00;;;;4989711;28;20213;-74
2023/06/08 06:58:52;;;;;;;5.27;4.77;;;;;21.70;96769.00;;;;4986150;28;20202;-75
2023/06/08 07:01:41;;;;;;;6.37;4.37;;;;;21.30;96770.00;;;;4987381;28;20260;-74
2023/06/08 07:04:32;;;;;;;6.07;5.00;;;;;21.00;96760.00;;;;4992452;28;20687;-74
2023/06/08 07:07:23;;;;;;;5.13;4.63;;;;;21.30;96763.00;;;;4993597;28;20208;-74
2023/06/08 07:10:13;;;;;;;5.30;4.80;;;;;21.80;96767.00;;;;4995386;28;20225;-74
2023/06/08 07:13:02;;;;;;;7.50;4.87;;;;;22.20;96770.00;;;;4993869;28;20234;-74
2023/06/08 07:15:51;;;;;;;6.33;5.17;;;;;22.50;96763.00;;;;4992037;28;20699;-74
2023/06/08 07:18:40;;;;;;;6.50;5.00;;;;;22.60;96762.00;;;;4995032;28;20206;-74
2023/06/08 07:21:30;;;;;;;5.00;4.47;;;;;22.70;96761.00;;;;4988320;28;20202;-74
2023/06/08 07:24:20;;;;;;;5.53;5.03;;;;;22.70;96757.00;;;;4989860;28;20253;-74
2023/06/08 07:27:10;;;;;;;5.90;4.87;;;;;22.90;96760.00;;;;4992680;28;20206;-74
2023/06/08 07:30:00;;;;;;;5.00;4.50;;;;;22.70;96751.00;;;;4988546;28;20691;-74
2023/06/08 07:32:49;;;;;;;5.97;5.33;;;;;22.90;96761.00;;;;4991093;28;20622;-75
2023/06/08 07:35:38;;;;;;;6.77;4.83;;;;;23.30;96755.00;;;;4990772;28;20305;-75
2023/06/08 07:38:30;;;;;;;7.43;4.90;;;;;23.50;96753.00;;;;4994153;28;20345;-75
2023/06/08 07:41:19;;;;;;;5.53;4.60;;;;;23.70;96749.00;;;;4986169;28;20202;-74
2023/06/08 07:44:08;;;;;;;4.93;4.53;;;;;24.00;96748.00;;;;4991307;28;20591;-75
2023/06/08 07:46:57;;;;;;;6.40;4.57;;;;;24.00;96744.00;;;;4981726;28;20210;-75
2023/06/08 07:49:46;;;;;;;5.27;4.87;;;;;23.90;96753.00;;;;4986167;28;20683;-75
2023/06/08 07:52:39;;;;;;;6.23;5.07;;;;;23.70;96747.00;;;;4990226;28;20226;-75
2023/06/08 07:55:29;;;;;;;6.63;4.70;;;;;23.50;96748.00;;;;4990475;28;21071;-75
2023/06/08 07:58:18;;;;;;;5.27;4.77;;;;;23.50;96751.00;;;;4981192;28;20502;-75
2023/06/08 08:01:07;;;;;;;6.10;4.53;;;;;23.70;96743.00;;;;4973150;28;20214;-75
2023/06/08 08:03:57;;;;;;;4.40;4.00;;;;;23.90;96746.00;;;;4990803;28;20233;-74
2023/06/08 08:06:46;;;;;;;4.60;4.20;;;;;23.90;96736.00;;;;4991990;28;20207;-74
2023/06/08 08:09:36;;;;;;;4.57;4.17;;;;;23.90;96736.00;;;;4985423;28;20801;-75
2023/06/08 08:12:26;;;;;;;5.00;4.43;;;;;24.00;96725.00;;;;4995545;28;20210;-74
2023/06/08 08:15:15;;;;;;;6.40;4.30;;;;;24.80;96736.00;;;;4984404;28;20233;-73
2023/06/08 08:18:10;;;;;;;4.77;3.93;;;;;24.60;96732.00;;;;4992853;28;20588;-73
2023/06/08 08:21:01;;;;;;;4.13;3.83;;;;;25.10;96729.00;;;;4997537;28;20210;-74
2023/06/08 08:23:50;;;;;;;4.67;4.27;;;;;25.40;96730.00;;;;4998332;28;20245;-74
2023/06/08 08:26:41;;;;;;;4.80;4.13;;;;;25.40;96718.00;;;;4997161;28;20202;-74
2023/06/08 08:29:32;;;;;;;4.70;4.20;;;;;25.70;96724.00;;;;4978407;28;20598;-75
2023/06/08 08:32:21;;;;;;;4.77;3.20;;;;;26.10;96718.00;;;;4991679;28;20278;-74
2023/06/08 08:35:10;;;;;;;5.67;3.63;;;;;25.60;96725.00;;;;4987955;28;20226;-74
2023/06/08 08:37:59;;;;;;;3.90;3.60;;;;;26.50;96732.00;;;;4989822;28;20213;-75
2023/06/08 08:40:49;;;;;;;5.00;4.43;;;;;26.60;96722.00;;;;5001447;28;20223;-75
2023/06/08 08:43:45;;;;;;;5.23;3.97;;;;;26.60;96730.00;;;;4991551;28;20802;-74
2023/06/08 08:46:38;;;;;;;4.13;3.73;;;;;25.50;96721.00;;;;4991608;28;20260;-73
2023/06/08 08:49:30;;;;;;;4.97;3.93;;;;;25.40;96719.00;;;;4985214;28;20226;-73
2023/06/08 08:52:20;;;;;;;5.67;4.37;;;;;26.30;96722.00;;;;4966573;28;20253;-73
2023/06/08 08:55:10;;;;;;;4.07;3.67;;;;;26.40;96732.00;;;;4986757;28;20238;-73
2023/06/08 08:58:07;;;;;;;4.20;3.80;;;;;26.10;96715.00;;;;4980083;28;20211;-73
2023/06/08 09:00:56;;;;;;;5.27;4.00;;;;;26.80;96713.00;;;;4954018;28;20707;-73
2023/06/08 09:03:47;;;;;;;3.87;3.33;;;;;27.20;96710.00;;;;4985529;28;20226;-73
2023/06/08 09:06:37;;;;;;;4.10;3.60;;;;;27.20;96712.00;;;;4978627;28;20226;-71
2023/06/08 09:09:26;;;;;;;4.23;3.87;;;;;26.40;96712.00;;;;4992671;28;20712;-72
2023/06/08 09:12:15;;;;;;;4.67;3.90;;;;;26.20;96710.00;;;;4989145;28;20204;-73
2023/06/08 09:15:05;;;;;;;4.63;4.23;;;;;26.40;96711.00;;;;4984263;28;20246;-73
2023/06/08 09:17:55;;;;;;;4.60;4.03;;;;;26.80;96720.00;;;;4988665;28;20209;-73
2023/06/08 09:20:46;;;;;;;4.07;3.67;;;;;27.20;96716.00;;;;4987553;28;20214;-74
2023/06/08 09:23:35;;;;;;;4.90;3.70;;;;;27.10;96712.00;;;;4989988;28;20224;-72
2023/06/08 09:26:31;;;;;;;5.47;4.03;;;;;27.60;96707.00;;;;4988099;28;20678;-73
2023/06/08 09:29:35;;;;;;;7.70;3.77;;;;;27.70;96707.00;;;;4987602;28;20207;-73
2023/06/08 09:32:32;;;;;;;3.80;3.43;;;;;27.80;96712.00;;;;4986688;28;20217;-71
2023/06/08 09:35:24;;;;;;;9.00;3.93;;;;;28.00;96694.00;;;;4987062;28;20236;-73
2023/06/08 09:38:20;;;;;;;4.47;4.07;;;;;28.40;96690.00;;;;4992659;28;20223;-73
2023/06/08 09:41:15;;;;;;;3.80;3.50;;;;;27.80;96678.00;;;;4988048;28;20271;-73
2023/06/08 09:44:17;;;;;;;6.00;4.10;;;;;28.40;96678.00;;;;4990261;28;20238;-72
2023/06/08 09:47:23;;;;;;;3.80;2.83;;;;;29.00;96672.00;;;;4989708;28;20203;-73
2023/06/08 09:50:13;;;;;;;3.20;2.90;;;;;29.30;96653.00;;;;4990451;28;20219;-71
2023/06/08 09:53:02;;;;;;;4.10;3.47;;;;;29.80;96666.00;;;;4990910;28;20303;-72
2023/06/08 09:55:55;;;;;;;3.83;3.53;;;;;30.20;96649.00;;;;4986233;28;20228;-72
2023/06/08 09:58:45;;;;;;;4.30;3.43;;;;;30.70;96649.00;;;;4988168;28;20208;-72
2023/06/08 10:01:38;;;;;;;4.47;3.53;;;;;30.30;96651.00;;;;4987826;28;20210;-72
2023/06/08 10:04:32;;;;;;;4.03;3.67;;;;;30.90;96664.00;;;;4986933;28;20229;-71
2023/06/08 10:07:25;;;;;;;4.13;3.20;;;;;26.50;96638.00;;;;4988366;28;20271;-68
2023/06/08 10:10:19;;;;;;;4.13;3.83;;;;;26.30;96640.00;;;;4985424;28;20220;-70
2023/06/08 10:13:11;;;;;;;3.63;3.33;;;;;24.60;96679.00;;;;4984882;28;20237;-76
2023/06/08 10:16:01;;;;;;;3.90;3.37;;;;;24.20;96671.00;;;;4987548;28;20239;-76
2023/06/08 10:18:50;;;;;;;3.63;3.13;;;;;24.00;96687.00;;;;4991805;28;20235;-74
2023/06/08 10:21:39;;;;;;;5.07;4.17;;;;;24.40;96676.00;;;;4993810;28;20226;-73
2023/06/08 10:24:30;;;;;;;4.57;4.10;;;;;25.10;96671.00;;;;4991079;28;20241;-70
2023/06/08 10:27:28;;;;;;;4.30;3.90;;;;;24.60;96665.00;;;;4994259;28;20202;-72
2023/06/08 10:30:29;;;;;;;4.37;3.97;;;;;24.70;96626.00;;;;4991194;28;20211;-70
2023/06/08 10:33:20;;;;;;;4.13;3.73;;;;;26.50;96653.00;;;;4993286;28;20385;-72
2023/06/08 10:36:10;;;;;;;3.60;3.30;;;;;27.00;96610.00;;;;4995561;28;20245;-71
2023/06/08 10:39:00;;;;;;;4.63;3.10;;;;;28.50;96604.00;;;;4984671;28;20211;-70
2023/06/08 10:41:55;;;;;;;5.03;3.30;;;;;29.40;96602.00;;;;4992477;28;20203;-70
2023/06/08 10:44:46;;;;;;;8.40;4.03;;;;;28.10;96634.00;;;;4990169;28;20232;-75
2023/06/08 10:47:38;;;;;;;6.13;3.53;;;;;27.50;96638.00;;;;4992572;28;20219;-73
2023/06/08 10:50:30;;;;;;;3.63;3.30;;;;;25.40;96625.00;;;;4993605;28;20205;-68
2023/06/08 10:53:20;;;;;;;3.40;3.10;;;;;25.20;96629.00;;;;4991610;28;20244;-68
2023/06/08 10:56:09;;;;;;;3.03;2.80;;;;;24.60;96623.00;;;;4992387;28;20285;-73
2023/06/08 10:58:58;;;;;;;4.00;3.50;;;;;26.80;96566.00;;;;4987121;28;20658;-70
2023/06/08 11:01:47;;;;;;;3.10;2.80;;;;;27.40;96563.00;;;;4997062;28;20209;-74
2023/06/08 11:04:38;;;;;;;3.30;3.00;;;;;28.40;96604.00;;;;4991990;28;20247;-73
2023/06/08 11:07:27;;;;;;;3.50;3.20;;;;;27.50;96606.00;;;;4992158;28;20308;-74
2023/06/08 11:10:17;;;;;;;3.33;3.07;;;;;27.70;96601.00;;;;4990688;28;20212;-72
2023/06/08 11:13:07;;;;;;;3.43;3.13;;;;;28.40;96535.00;;;;4987657;28;20234;-72
2023/06/08 11:15:56;;;;;;;5.17;3.30;;;;;30.00;96590.00;;;;4971893;28;20216;-70
2023/06/08 11:18:45;;;;;;;2.70;2.50;;;;;29.00;96602.00;;;;4983947;28;20610;-70
2023/06/08 11:21:37;;;;;;;3.20;2.90;;;;;28.70;96592.00;;;;4988538;28;20576;-69
2023/06/08 11:24:27;;;;;;;3.63;2.93;;;;;28.50;96590.00;;;;4988071;28;20226;-70
2023/06/08 11:27:17;;;;;;;8.00;2.93;;;;;28.50;96576.00;;;;4994456;28;20196;-70
2023/06/08 11:30:08;;;;;;;3.53;3.23;;;;;30.50;96515.00;;;;5004459;28;20211;-71
2023/06/08 11:32:57;;;;;;;3.20;2.87;;;;;30.00;96539.00;;;;5003342;28;20274;-76
2023/06/08 11:35:51;;;;;;;3.80;3.23;;;;;30.60;96516.00;;;;4998463;28;20201;-72
2023/06/08 11:38:43;;;;;;;3.03;2.80;;;;;31.10;96532.00;;;;4992450;28;20208;-72
2023/06/08 11:41:32;;;;;;;3.60;3.30;;;;;31.10;96534.00;;;;4989507;28;20205;-72
2023/06/08 11:44:21;;;;;;;5.57;2.90;;;;;29.10;96558.00;;;;4989764;28;20700;-68
2023/06/08 11:47:10;;;;;;;3.10;2.80;;;;;30.10;96525.00;;;;4991316;28;20216;-69
2023/06/08 11:50:03;;;;;;;6.67;3.93;;;;;31.60;96523.00;;;;4991692;28;20291;-69
2023/06/08 11:52:52;;;;;;;4.40;2.70;;;;;31.90;96521.00;;;;4981757;28;20627;-72
2023/06/08 11:55:45;;;;;;;3.47;2.80;;;;;32.60;96525.00;;;;4990730;28;20232;-70
2023/06/08 11:58:37;;;;;;;4.18;3.10;;;;;32.50;96525.00;;;;4994828;28;20435;-69
2023/06/08 12:01:28;;;;;;;3.28;2.97;;;;;32.90;96518.00;;;;4989962;28;20201;-70
2023/06/08 12:04:19;;;;;;;3.25;2.88;;;;;32.60;96512.00;;;;4994035;28;20231;-71
2023/06/08 12:07:10;;;;;;;5.22;2.65;;;;;33.30;96510.00;;;;4999489;28;20737;-72
2023/06/08 12:10:00;;;;;;;4.75;2.75;;;;;32.40;96509.00;;;;4989228;28;20214;-72
2023/06/08 12:12:51;;;;;;;2.40;2.10;;;;;32.10;96514.00;;;;4987895;28;21964;-73
2023/06/08 12:15:42;;;;;;;2.85;2.30;;;;;32.00;96527.00;;;;4990378;28;20208;-72
2023/06/08 12:18:38;;;;;;;2.72;2.47;;;;;31.40;96571.00;;;;4989832;28;20228;-71
2023/06/08 12:21:27;;;;;;;4.35;2.85;;;;;29.60;96531.00;;;;4988544;28;20588;-73
2023/06/08 12:24:16;;;;;;;3.08;2.75;;;;;30.50;96510.00;;;;4989862;28;20231;-71
2023/06/08 12:27:07;;;;;;;3.25;2.85;;;;;30.90;96577.00;;;;4985877;28;20199;-71
2023/06/08 12:29:58;;;;;;;3.22;2.78;;;;;29.70;96564.00;;;;4985873;28;20211;-71
2023/06/08 12:32:47;;;;;;;4.70;2.45;;;;;29.20;96542.00;;;;4990107;28;20201;-70
2023/06/08 12:35:36;;;;;;;2.83;2.50;;;;;29.00;96571.00;;;;4995543;28;20207;-71
2023/06/08 12:38:26;;;;;;;2.83;2.13;;;;;28.50;96568.00;;;;4989189;28;20241;-71
2023/06/08 12:41:18;;;;;;;3.10;2.80;;;;;27.70;96562.00;;;;4991157;28;20217;-76
2023/06/08 12:44:07;;;;;;;2.40;2.20;;;;;27.80;96565.00;;;;4997611;28;20258;-74
2023/06/08 12:46:58;;;;;;;3.37;3.07;;;;;27.80;96563.00;;;;4988127;28;20799;-73
2023/06/08 12:49:47;;;;;;;2.83;2.30;;;;;28.20;96552.00;;;;4988897;28;20744;-73
2023/06/08 12:52:37;;;;;;;3.37;2.53;;;;;28.20;96555.00;;;;4994014;28;20212;-73
2023/06/08 12:55:26;;;;;;;3.23;2.90;;;;;27.70;96556.00;;;;4996798;28;20262;-74
2023/06/08 12:58:16;;;;;;;2.80;2.57;;;;;28.90;96501.00;;;;4992385;28;20237;-74
2023/06/08 13:01:05;;;;;;;3.23;2.67;;;;;30.70;96510.00;;;;4990320;28;20232;-73
2023/06/08 13:03:56;;;;;;;4.33;3.10;;;;;30.10;96516.00;;;;4991972;28;20253;-74
2023/06/08 13:06:45;;;;;;;2.60;2.33;;;;;31.80;96508.00;;;;4995530;28;20236;-72
2023/06/08 13:09:34;;;;;;;4.25;3.15;;;;;33.00;96503.00;;;;5002648;28;20213;-72
2023/06/08 13:12:25;;;;;;;5.80;2.67;;;;;33.50;96502.00;;;;4990451;28;20686;-74
2023/06/08 13:15:14;;;;;;;2.95;2.03;;;;;33.90;96498.00;;;;4993641;28;20215;-70
2023/06/08 13:18:06;;;;;;;3.30;2.70;;;;;34.90;96508.00;;;;4992880;28;20224;-72
2023/06/08 13:20:56;;;;;;;3.03;2.70;;;;;34.30;96524.00;;;;4984570;28;20598;-71
2023/06/08 13:23:46;;;;;;;3.30;3.00;;;;;34.00;96507.00;;;;4985855;28;20226;-71
2023/06/08 13:26:35;;;;;;;3.45;2.75;;;;;33.50;96556.00;;;;4984632;28;20211;-70
2023/06/08 13:29:27;;;;;;;2.70;2.50;;;;;32.90;96578.00;;;;4987957;28;20678;-72
2023/06/08 13:32:17;;;;;;;2.92;2.70;;;;;32.20;96574.00;;;;4993837;28;20213;-71
2023/06/08 13:35:06;;;;;;;3.08;2.78;;;;;31.40;96587.00;;;;4988702;28;20230;-71
2023/06/08 13:37:57;;;;;;;2.55;2.20;;;;;30.30;96603.00;;;;4990405;28;20229;-71
2023/06/08 13:40:50;;;;;;;2.75;2.30;;;;;29.50;96606.00;;;;4996122;28;20203;-71
2023/06/08 13:43:43;;;;;;;2.20;2.00;;;;;28.60;96598.00;;;;4988146;28;20219;-71
2023/06/08 13:46:32;;;;;;;3.45;2.47;;;;;26.10;96606.00;;;;4989088;28;20201;-76
2023/06/08 13:49:21;;;;;;;2.23;2.03;;;;;26.40;96593.00;;;;4990823;28;20256;-77
2023/06/08 13:52:11;;;;;;;2.77;2.43;;;;;26.00;96603.00;;;;4997010;28;20220;-73
2023/06/08 13:55:01;;;;;;;2.90;2.23;;;;;26.50;96610.00;;;;4999985;28;20321;-76
2023/06/08 13:57:51;;;;;;;2.53;2.27;;;;;26.20;96618.00;;;;4998787;28;20241;-75
2023/06/08 14:00:40;;;;;;;2.70;2.30;;;;;25.70;96612.00;;;;4999507;28;20236;-75
2023/06/08 14:03:29;;;;;;;3.73;3.23;;;;;25.20;96606.00;;;;4999227;28;20235;-69
2023/06/08 14:06:20;;;;;;;3.17;2.53;;;;;25.80;96605.00;;;;4991089;28;20208;-69
2023/06/08 14:09:10;;;;;;;3.40;2.60;;;;;25.80;96607.00;;;;4985589;28;20702;-70
2023/06/08 14:12:00;;;;;;;2.53;2.33;;;;;25.90;96600.00;;;;4969939;28;20218;-70
2023/06/08 14:14:50;;;;;;;2.80;2.60;;;;;25.90;96599.00;;;;4989098;28;20225;-71